createdAt,value
2022-09-13T00:04:59.108Z,17.27
2022-09-13T00:10:00.940Z,17.25
2022-09-13T00:15:02.820Z,17.18
2022-09-13T00:20:05.261Z,17.13
2022-09-13T00:25:07.941Z,17.10
2022-09-13T00:30:10.368Z,17.03
2022-09-13T00:35:12.324Z,17.03
2022-09-13T00:40:14.203Z,17.08
2022-09-13T00:45:18.428Z,17.10
2022-09-13T00:50:33.664Z,17.15
2022-09-13T00:55:42.222Z,17.15
2022-09-13T01:00:44.804Z,17.10
2022-09-13T01:05:53.684Z,17.02
2022-09-13T01:11:00.096Z,16.98
2022-09-13T01:16:02.292Z,16.99
2022-09-13T01:21:25.381Z,17.00
2022-09-13T01:26:30.180Z,16.96
2022-09-13T01:31:31.952Z,16.90
2022-09-13T01:36:49.671Z,16.88
2022-09-13T01:42:06.720Z,16.86
2022-09-13T01:47:23.530Z,16.84
2022-09-13T01:52:44.006Z,16.87
2022-09-13T01:58:29.815Z,17.00
2022-09-13T02:03:40.303Z,17.10
2022-09-13T02:08:47.428Z,17.38
2022-09-13T02:13:57.832Z,17.65
2022-09-13T02:19:02.875Z,17.84
2022-09-13T02:24:14.019Z,17.94
2022-09-13T02:29:19.991Z,17.99
2022-09-13T02:34:25.782Z,18.04
2022-09-13T02:39:30.809Z,18.10
2022-09-13T02:44:42.615Z,18.20
2022-09-13T02:49:51.715Z,18.23
2022-09-13T02:55:04.255Z,18.27
2022-09-13T03:00:06.718Z,18.30
2022-09-13T03:05:08.651Z,18.34
2022-09-13T03:10:13.859Z,18.38
2022-09-13T03:15:47.481Z,18.44
2022-09-13T03:21:07.709Z,18.42
2022-09-13T03:26:23.940Z,18.42
2022-09-13T03:31:32.909Z,18.40
2022-09-13T03:36:57.266Z,18.45
2022-09-13T03:42:08.669Z,18.48
2022-09-13T03:47:11.753Z,18.50
2022-09-13T03:52:14.106Z,18.57
2022-09-13T03:57:23.001Z,18.60
2022-09-13T04:02:26.565Z,18.62
2022-09-13T04:07:28.417Z,18.66
2022-09-13T04:12:31.909Z,18.69
2022-09-13T04:17:33.962Z,18.69
2022-09-13T04:22:35.760Z,18.68
2022-09-13T04:27:37.593Z,18.71
2022-09-13T04:32:39.408Z,18.70
2022-09-13T04:37:41.226Z,18.68
2022-09-13T04:42:46.149Z,18.68
2022-09-13T04:47:55.294Z,18.71
2022-09-13T04:52:57.085Z,18.72
2022-09-13T04:57:58.848Z,18.76
2022-09-13T05:03:00.781Z,18.82
2022-09-13T05:08:02.566Z,18.93
2022-09-13T05:13:04.371Z,19.03
2022-09-13T05:18:06.208Z,19.15
2022-09-13T05:23:08.054Z,19.27
2022-09-13T05:28:09.874Z,19.41
2022-09-13T05:33:11.679Z,19.58
2022-09-13T05:38:13.480Z,19.71
2022-09-13T05:43:15.445Z,19.84
2022-09-13T05:48:17.451Z,19.96
2022-09-13T05:53:19.443Z,20.07
2022-09-13T05:58:21.330Z,20.26
2022-09-13T06:03:24.334Z,20.44
2022-09-13T06:08:28.496Z,20.64
2022-09-13T06:13:31.021Z,20.69
2022-09-13T06:18:33.754Z,20.83
2022-09-13T06:23:36.218Z,21.05
2022-09-13T06:28:38.820Z,21.34
2022-09-13T06:33:42.734Z,21.56
2022-09-13T06:38:45.867Z,21.72
2022-09-13T06:43:48.325Z,21.79
2022-09-13T06:48:50.287Z,21.78
2022-09-13T06:53:56.588Z,21.89
2022-09-13T06:59:01.211Z,21.98
2022-09-13T07:04:09.034Z,22.02
2022-09-13T07:09:18.142Z,22.03
2022-09-13T07:14:25.551Z,22.07
2022-09-13T07:19:28.831Z,22.11
2022-09-13T07:24:30.662Z,22.19
2022-09-13T07:29:32.511Z,22.10
2022-09-13T07:34:34.307Z,22.19
2022-09-13T07:39:36.106Z,22.44
2022-09-13T07:44:39.845Z,22.64
2022-09-13T07:49:41.832Z,22.64
2022-09-13T07:54:43.651Z,22.55
2022-09-13T07:59:45.445Z,22.42
2022-09-13T08:04:47.352Z,22.36
2022-09-13T08:09:49.528Z,22.17
2022-09-13T08:14:51.318Z,21.96
2022-09-13T08:19:53.116Z,21.84
2022-09-13T08:24:54.910Z,21.83
2022-09-13T08:29:56.727Z,21.83
2022-09-13T08:34:58.625Z,21.95
2022-09-13T08:40:00.504Z,22.11
2022-09-13T08:45:02.635Z,22.22
2022-09-13T08:50:18.842Z,22.21
2022-09-13T08:55:53.126Z,22.08
2022-09-13T09:01:20.676Z,22.04
2022-09-13T09:06:23.363Z,21.99
2022-09-13T09:11:35.907Z,22.14
2022-09-13T09:16:40.672Z,22.23
2022-09-13T09:21:44.938Z,22.22
2022-09-13T09:26:46.823Z,22.34
2022-09-13T09:32:00.755Z,22.37
2022-09-13T09:37:20.053Z,22.37
2022-09-13T09:42:28.694Z,22.40
2022-09-13T09:47:42.339Z,22.53
2022-09-13T09:53:01.795Z,22.65
2022-09-13T09:58:06.465Z,22.76
2022-09-13T10:03:18.951Z,22.91
2022-09-13T10:08:31.519Z,23.32
2022-09-13T10:13:33.869Z,23.55
2022-09-13T10:18:45.513Z,23.79
2022-09-13T10:23:50.545Z,24.08
2022-09-13T10:28:52.385Z,24.29
2022-09-13T10:34:01.803Z,24.53
2022-09-13T10:39:18.254Z,24.66
2022-09-13T10:44:26.669Z,24.77
2022-09-13T10:49:49.102Z,25.01
2022-09-13T10:54:51.041Z,25.37
2022-09-13T10:59:54.873Z,25.63
2022-09-13T11:05:29.241Z,25.88
2022-09-13T11:10:50.762Z,26.18
2022-09-13T11:15:55.468Z,26.45
2022-09-13T11:21:31.027Z,26.70
2022-09-13T11:27:04.682Z,26.63
2022-09-13T11:32:15.249Z,26.58
2022-09-13T11:37:44.196Z,26.45
2022-09-13T11:43:30.651Z,26.54
2022-09-13T11:48:47.378Z,26.90
2022-09-13T11:54:28.334Z,26.98
2022-09-13T11:59:49.743Z,27.31
2022-09-13T12:05:21.546Z,27.61
2022-09-13T12:10:30.466Z,27.95
2022-09-13T12:15:38.028Z,28.22
2022-09-13T12:20:44.450Z,28.20
2022-09-13T12:25:49.422Z,27.94
2022-09-13T12:30:59.623Z,27.73
2022-09-13T12:36:28.944Z,27.77
2022-09-13T12:42:18.633Z,27.83
2022-09-13T12:47:52.611Z,28.02
2022-09-13T12:52:54.502Z,27.92
2022-09-13T12:58:27.048Z,27.91
2022-09-13T13:03:37.211Z,27.71
2022-09-13T13:08:51.304Z,27.63
2022-09-13T13:13:56.312Z,27.56
2022-09-13T13:19:03.500Z,27.50
2022-09-13T13:24:17.394Z,27.69
2022-09-13T13:29:19.763Z,27.88
2022-09-13T13:34:24.605Z,27.78
2022-09-13T13:39:26.377Z,28.00
2022-09-13T13:44:28.329Z,28.22
2022-09-13T13:49:30.180Z,28.44
2022-09-13T13:54:53.599Z,28.76
2022-09-13T14:00:03.328Z,28.68
2022-09-13T14:05:26.403Z,28.56
2022-09-13T14:16:08.079Z,28.29
2022-09-13T14:21:26.829Z,27.97
2022-09-13T14:26:28.699Z,27.86
2022-09-13T14:31:30.671Z,27.83
2022-09-13T14:36:32.509Z,27.55
2022-09-13T14:41:38.049Z,27.44
2022-09-13T14:46:43.269Z,27.30
2022-09-13T14:51:55.293Z,27.12
2022-09-13T14:56:59.859Z,26.91
2022-09-13T15:02:25.985Z,26.78
2022-09-13T15:07:37.334Z,26.75
2022-09-13T15:12:57.929Z,26.73
2022-09-13T15:18:07.966Z,26.65
2022-09-13T15:23:38.998Z,26.68
2022-09-13T15:28:43.497Z,26.62
2022-09-13T15:33:49.375Z,26.62
2022-09-13T15:39:09.468Z,26.70
2022-09-13T15:44:11.307Z,26.62
2022-09-13T15:49:17.996Z,26.66
2022-09-13T15:54:22.868Z,25.91
2022-09-13T15:59:24.700Z,25.71
2022-09-13T16:04:26.460Z,25.57
2022-09-13T16:09:28.299Z,25.37
2022-09-13T16:14:30.278Z,25.30
2022-09-13T16:19:32.124Z,25.22
2022-09-13T16:24:34.368Z,25.06
2022-09-13T16:29:36.217Z,24.95
2022-09-13T16:34:38.068Z,24.96
2022-09-13T16:39:39.886Z,24.90
2022-09-13T16:44:42.332Z,24.80
2022-09-13T16:49:44.552Z,24.83
2022-09-13T16:54:49.393Z,24.83
2022-09-13T16:59:52.840Z,24.80
2022-09-13T17:04:54.694Z,24.68
2022-09-13T17:09:56.892Z,24.60
2022-09-13T17:15:00.257Z,24.50
2022-09-13T17:20:06.702Z,24.35
2022-09-13T17:25:09.046Z,24.37
2022-09-13T17:30:12.576Z,24.26
2022-09-13T17:35:14.560Z,24.25
2022-09-13T17:40:16.416Z,24.18
2022-09-13T17:45:18.477Z,24.13
2022-09-13T17:50:20.399Z,24.05
2022-09-13T17:55:22.206Z,23.98
2022-09-13T18:00:24.297Z,23.86
2022-09-13T18:05:26.107Z,23.74
2022-09-13T18:10:53.038Z,23.63
2022-09-13T18:16:01.103Z,23.61
2022-09-13T18:21:03.670Z,23.47
2022-09-13T18:26:11.878Z,23.31
2022-09-13T18:31:18.044Z,23.17
2022-09-13T18:36:20.447Z,23.09
2022-09-13T18:41:35.294Z,23.15
2022-09-13T18:46:37.862Z,23.09
2022-09-13T18:51:43.823Z,23.03
2022-09-13T18:56:46.391Z,22.90
2022-09-13T19:01:49.024Z,22.89
2022-09-13T19:06:54.097Z,22.90
2022-09-13T19:11:56.065Z,22.86
2022-09-13T19:17:03.179Z,22.79
2022-09-13T19:22:05.129Z,22.73
2022-09-13T19:27:07.145Z,22.71
2022-09-13T19:32:09.016Z,22.65
2022-09-13T19:37:10.898Z,22.60
2022-09-13T19:42:13.418Z,22.60
2022-09-13T19:48:02.282Z,22.57
2022-09-13T19:52:37.936Z,22.64
2022-09-13T19:57:44.345Z,22.61
2022-09-13T20:02:48.495Z,22.33
2022-09-13T20:07:50.401Z,22.19
2022-09-13T20:12:54.500Z,22.07
2022-09-13T20:17:56.665Z,21.96
2022-09-13T20:22:58.453Z,21.71
2022-09-13T20:28:00.294Z,21.75
2022-09-13T20:33:03.677Z,21.91
2022-09-13T20:38:06.626Z,21.88
2022-09-13T20:43:08.436Z,21.91
2022-09-13T20:48:11.120Z,21.89
2022-09-13T20:53:14.417Z,21.94
2022-09-13T20:58:16.897Z,21.94
2022-09-13T21:03:18.716Z,21.81
2022-09-13T21:08:39.406Z,21.71
2022-09-13T21:13:44.748Z,21.62
2022-09-13T21:18:47.508Z,21.65
2022-09-13T21:23:49.816Z,21.51
2022-09-13T21:28:51.672Z,21.47
2022-09-13T21:33:58.918Z,21.47
2022-09-13T21:39:01.084Z,21.39
2022-09-13T21:44:03.167Z,21.36
2022-09-13T21:49:09.517Z,21.23
2022-09-13T21:54:17.288Z,21.22
2022-09-13T21:59:20.870Z,21.28
2022-09-13T22:04:27.633Z,21.28
2022-09-13T22:09:29.651Z,21.27
2022-09-13T22:14:31.427Z,21.27
2022-09-13T22:19:33.290Z,21.24
2022-09-13T22:24:36.593Z,21.14
2022-09-13T22:29:38.452Z,21.16
2022-09-13T22:34:40.915Z,21.08
2022-09-13T22:39:42.731Z,21.01
2022-09-13T22:44:44.760Z,20.96
2022-09-13T22:49:46.607Z,20.89
2022-09-13T22:54:50.879Z,20.82
2022-09-13T22:59:52.774Z,20.81
2022-09-13T23:04:54.633Z,20.89
2022-09-13T23:09:56.385Z,20.91
2022-09-13T23:14:58.127Z,20.86
2022-09-13T23:19:59.869Z,20.83
2022-09-13T23:25:01.643Z,20.80
2022-09-13T23:30:03.910Z,20.77
2022-09-13T23:35:06.074Z,20.62
2022-09-13T23:40:08.254Z,20.64
2022-09-13T23:45:10.639Z,20.66
2022-09-13T23:50:12.424Z,20.61
2022-09-13T23:55:14.461Z,20.53
